createdAt,value
2018-05-14T00:00:53.925Z,23.60
2018-05-14T00:01:58.737Z,23.60
2018-05-14T00:03:03.801Z,23.60
2018-05-14T00:04:08.811Z,23.60
2018-05-14T00:05:13.659Z,23.60
2018-05-14T00:06:18.275Z,23.60
2018-05-14T00:07:23.137Z,23.60
2018-05-14T00:08:27.946Z,23.60
2018-05-14T00:09:32.911Z,23.60
2018-05-14T00:10:37.889Z,23.60
2018-05-14T00:11:42.680Z,23.60
2018-05-14T00:12:47.635Z,23.60
2018-05-14T00:13:52.364Z,23.60
2018-05-14T00:14:57.170Z,23.60
2018-05-14T00:16:01.969Z,23.60
2018-05-14T00:17:06.852Z,23.60
2018-05-14T00:18:11.965Z,23.60
2018-05-14T00:19:17.031Z,23.60
2018-05-14T00:20:22.188Z,23.60
2018-05-14T00:21:27.315Z,23.60
2018-05-14T00:22:32.179Z,23.60
2018-05-14T00:23:37.157Z,23.60
2018-05-14T00:24:42.183Z,23.60
2018-05-14T00:25:47.226Z,23.60
2018-05-14T00:26:52.113Z,23.60
2018-05-14T00:27:57.173Z,23.60
2018-05-14T00:29:02.042Z,23.60
2018-05-14T00:30:06.918Z,23.60
2018-05-14T00:31:11.885Z,23.60
2018-05-14T00:32:16.730Z,23.60
2018-05-14T00:33:21.687Z,23.60
2018-05-14T00:34:26.534Z,23.60
2018-05-14T00:35:31.418Z,23.60
2018-05-14T00:36:36.334Z,23.60
2018-05-14T00:37:41.595Z,23.60
2018-05-14T00:38:46.578Z,23.60
2018-05-14T00:39:51.493Z,23.60
2018-05-14T00:40:56.355Z,23.60
2018-05-14T00:42:01.354Z,23.60
2018-05-14T00:43:06.252Z,23.60
2018-05-14T00:44:11.139Z,23.60
2018-05-14T00:45:15.901Z,23.60
2018-05-14T00:46:20.782Z,23.60
2018-05-14T00:47:25.654Z,23.60
2018-05-14T00:48:30.563Z,23.60
2018-05-14T00:49:35.490Z,23.60
2018-05-14T00:50:40.366Z,23.60
2018-05-14T00:51:45.057Z,23.60
2018-05-14T00:52:49.835Z,23.60
2018-05-14T00:53:54.678Z,23.60
2018-05-14T00:54:59.776Z,23.60
2018-05-14T00:56:04.627Z,23.60
2018-05-14T00:57:09.461Z,23.60
2018-05-14T00:58:14.448Z,23.60
2018-05-14T00:59:19.480Z,23.60
2018-05-14T01:00:24.504Z,23.60
2018-05-14T01:01:29.205Z,23.60
2018-05-14T01:02:34.202Z,23.60
2018-05-14T01:03:38.963Z,23.60
2018-05-14T01:04:43.844Z,23.60
2018-05-14T01:05:48.807Z,23.60
2018-05-14T01:06:53.857Z,23.60
2018-05-14T01:07:58.827Z,23.60
2018-05-14T01:09:03.559Z,23.60
2018-05-14T01:10:08.356Z,23.60
2018-05-14T01:11:13.404Z,23.60
2018-05-14T01:12:18.133Z,23.60
2018-05-14T01:13:22.920Z,23.60
2018-05-14T01:14:27.954Z,23.60
2018-05-14T01:15:32.976Z,23.60
2018-05-14T01:16:38.023Z,23.60
2018-05-14T01:17:43.014Z,23.60
2018-05-14T01:18:47.902Z,23.60
2018-05-14T01:19:52.976Z,23.60
2018-05-14T01:20:58.051Z,23.60
2018-05-14T01:22:02.955Z,23.60
2018-05-14T01:23:07.981Z,23.60
2018-05-14T01:24:13.027Z,23.60
2018-05-14T01:25:18.107Z,23.60
2018-05-14T01:26:23.050Z,23.60
2018-05-14T01:27:28.057Z,23.60
2018-05-14T01:28:33.066Z,23.60
2018-05-14T01:29:38.034Z,23.60
2018-05-14T01:30:43.108Z,23.60
2018-05-14T01:31:48.099Z,23.60
2018-05-14T01:32:52.966Z,23.60
2018-05-14T01:33:57.990Z,23.60
2018-05-14T01:35:03.029Z,23.60
2018-05-14T01:36:08.028Z,23.60
2018-05-14T01:37:13.060Z,23.60
2018-05-14T01:38:17.888Z,23.60
2018-05-14T01:39:22.745Z,23.60
2018-05-14T01:40:27.760Z,23.60
2018-05-14T01:41:32.793Z,23.60
2018-05-14T01:42:37.909Z,23.60
2018-05-14T01:43:43.059Z,23.60
2018-05-14T01:44:48.139Z,23.60
2018-05-14T01:45:53.055Z,23.60
2018-05-14T01:46:58.180Z,23.60
2018-05-14T01:48:03.088Z,23.60
2018-05-14T01:49:08.141Z,23.60
2018-05-14T01:50:13.122Z,23.60
2018-05-14T01:51:18.055Z,23.60
2018-05-14T01:52:23.020Z,23.60
2018-05-14T01:53:27.914Z,23.60
2018-05-14T01:54:32.856Z,23.60
2018-05-14T01:55:37.788Z,23.60
2018-05-14T01:56:42.739Z,23.60
2018-05-14T01:57:47.813Z,23.60
2018-05-14T01:58:52.599Z,23.60
2018-05-14T01:59:57.726Z,23.60
2018-05-14T02:01:02.560Z,23.60
2018-05-14T02:02:07.398Z,23.60
2018-05-14T02:03:12.353Z,23.60
2018-05-14T02:04:17.264Z,23.60
2018-05-14T02:05:22.306Z,23.60
2018-05-14T02:06:27.274Z,23.60
2018-05-14T02:07:32.166Z,23.60
2018-05-14T02:08:37.003Z,23.60
2018-05-14T02:09:42.010Z,23.60
2018-05-14T02:10:46.945Z,23.60
2018-05-14T02:11:51.809Z,23.60
2018-05-14T02:12:56.775Z,23.60
2018-05-14T02:14:01.686Z,23.60
2018-05-14T02:15:06.444Z,23.60
2018-05-14T02:16:11.278Z,23.60
2018-05-14T02:17:16.320Z,23.60
2018-05-14T02:18:21.454Z,23.60
2018-05-14T02:19:26.536Z,23.60
2018-05-14T02:20:31.349Z,23.60
2018-05-14T02:21:36.244Z,23.60
2018-05-14T02:22:41.337Z,23.60
2018-05-14T02:23:46.171Z,23.60
2018-05-14T02:24:51.169Z,23.60
2018-05-14T02:25:56.202Z,23.60
2018-05-14T02:27:01.348Z,23.60
2018-05-14T02:28:06.252Z,23.60
2018-05-14T02:29:11.223Z,23.60
2018-05-14T02:30:16.253Z,23.60
2018-05-14T02:31:21.185Z,23.60
2018-05-14T02:32:26.153Z,23.60
2018-05-14T02:33:31.132Z,23.60
2018-05-14T02:34:36.024Z,23.60
2018-05-14T02:35:40.782Z,23.60
2018-05-14T02:38:05.917Z,23.60
2018-05-14T02:39:10.769Z,23.60
2018-05-14T02:40:15.641Z,23.60
2018-05-14T02:41:20.563Z,23.70
2018-05-14T02:42:25.364Z,23.60
2018-05-14T02:43:30.443Z,23.60
2018-05-14T02:44:35.294Z,23.60
2018-05-14T02:45:40.331Z,23.60
2018-05-14T02:46:45.243Z,23.60
2018-05-14T02:47:49.808Z,23.60
2018-05-14T02:48:54.438Z,23.60
2018-05-14T02:49:59.409Z,23.60
2018-05-14T02:51:04.311Z,23.60
2018-05-14T02:52:09.178Z,23.60
2018-05-14T02:53:14.072Z,23.60
2018-05-14T02:54:18.960Z,23.60
2018-05-14T02:55:23.762Z,23.60
2018-05-14T02:56:28.590Z,23.60
2018-05-14T02:57:33.402Z,23.60
2018-05-14T02:58:38.170Z,23.60
2018-05-14T02:59:43.132Z,23.60
2018-05-14T03:00:47.906Z,23.60
2018-05-14T03:01:52.537Z,23.60
2018-05-14T03:02:57.433Z,23.60
2018-05-14T03:04:02.309Z,23.60
2018-05-14T03:05:07.171Z,23.60
2018-05-14T03:06:12.009Z,23.60
2018-05-14T03:07:16.638Z,23.60
2018-05-14T03:08:21.848Z,23.60
2018-05-14T03:09:26.919Z,23.60
2018-05-14T03:10:32.117Z,23.70
2018-05-14T03:11:36.807Z,23.60
2018-05-14T03:12:41.671Z,23.60
2018-05-14T03:13:46.595Z,23.60
2018-05-14T03:14:51.555Z,23.60
2018-05-14T03:15:56.311Z,23.60
2018-05-14T03:17:01.400Z,23.60
2018-05-14T03:18:06.283Z,23.50
2018-05-14T03:19:11.088Z,23.40
2018-05-14T03:20:15.836Z,23.40
2018-05-14T03:21:20.726Z,23.30
2018-05-14T03:22:25.339Z,23.30
2018-05-14T03:23:30.106Z,23.30
2018-05-14T03:24:34.863Z,23.20
2018-05-14T03:25:40.006Z,23.20
2018-05-14T03:26:44.913Z,23.20
2018-05-14T03:27:49.834Z,23.20
2018-05-14T03:28:54.662Z,23.20
2018-05-14T03:29:59.644Z,23.20
2018-05-14T03:31:04.793Z,23.10
2018-05-14T03:32:24.526Z,23.10
2018-05-14T03:33:29.586Z,23.10
2018-05-14T03:34:34.552Z,23.10
2018-05-14T03:35:39.525Z,23.10
2018-05-14T03:36:44.375Z,23.10
2018-05-14T03:37:49.201Z,23.10
2018-05-14T03:38:54.087Z,23.10
2018-05-14T03:39:59.077Z,23.10
2018-05-14T03:41:04.188Z,23.10
2018-05-14T03:42:09.169Z,23.10
2018-05-14T03:43:14.057Z,23.10
2018-05-14T03:44:18.785Z,23.10
2018-05-14T03:45:23.714Z,23.10
2018-05-14T03:46:28.759Z,23.10
2018-05-14T03:47:33.800Z,23.00
2018-05-14T03:48:38.604Z,23.00
2018-05-14T03:49:43.373Z,23.00
2018-05-14T03:50:48.172Z,23.00
2018-05-14T03:51:53.046Z,23.00
2018-05-14T03:52:57.949Z,23.00
2018-05-14T03:54:02.851Z,23.00
2018-05-14T03:55:07.689Z,23.00
2018-05-14T03:56:12.559Z,23.00
2018-05-14T03:57:17.875Z,23.00
2018-05-14T03:58:23.387Z,22.90
2018-05-14T03:59:28.170Z,23.00
2018-05-14T04:00:33.012Z,22.90
2018-05-14T04:01:37.962Z,22.90
2018-05-14T04:02:42.820Z,22.90
2018-05-14T04:03:47.601Z,22.90
2018-05-14T04:04:52.554Z,22.90
2018-05-14T04:05:57.517Z,22.90
2018-05-14T04:07:02.482Z,22.90
2018-05-14T04:08:07.183Z,22.90
2018-05-14T04:09:12.416Z,22.90
2018-05-14T04:10:17.079Z,22.90
2018-05-14T04:11:21.762Z,22.90
2018-05-14T04:12:26.462Z,22.90
2018-05-14T04:13:31.495Z,22.90
2018-05-14T04:14:36.375Z,22.90
2018-05-14T04:15:41.303Z,22.90
2018-05-14T04:16:46.095Z,22.90
2018-05-14T04:17:51.104Z,22.80
2018-05-14T04:18:56.017Z,22.90
2018-05-14T04:20:01.184Z,22.90
2018-05-14T04:21:06.043Z,22.90
2018-05-14T04:22:11.013Z,22.80
2018-05-14T04:23:15.733Z,22.80
2018-05-14T04:24:20.802Z,22.80
2018-05-14T04:25:25.581Z,22.80
2018-05-14T04:26:30.575Z,22.80
2018-05-14T04:27:35.389Z,22.80
2018-05-14T04:28:40.431Z,22.80
2018-05-14T04:29:45.442Z,22.80
2018-05-14T04:30:50.350Z,22.80
2018-05-14T04:31:55.237Z,22.80
2018-05-14T04:33:00.235Z,22.80
2018-05-14T04:34:05.115Z,22.80
2018-05-14T04:35:10.200Z,22.80
2018-05-14T04:36:15.119Z,22.80
2018-05-14T04:37:19.993Z,22.80
2018-05-14T04:38:24.859Z,22.80
2018-05-14T04:39:29.792Z,22.80
2018-05-14T04:40:34.513Z,22.90
2018-05-14T04:41:39.341Z,22.90
2018-05-14T04:42:44.343Z,22.90
2018-05-14T04:43:49.156Z,23.00
2018-05-14T04:44:54.150Z,23.00
2018-05-14T04:45:58.927Z,23.00
2018-05-14T04:47:03.828Z,23.00
2018-05-14T04:48:08.648Z,23.10
2018-05-14T04:49:13.471Z,23.10
2018-05-14T04:50:18.404Z,23.10
2018-05-14T04:51:23.243Z,23.10
2018-05-14T04:52:28.095Z,23.10
2018-05-14T04:53:33.207Z,23.10
2018-05-14T04:54:38.213Z,23.10
2018-05-14T04:55:43.399Z,23.20
2018-05-14T04:56:48.225Z,23.20
2018-05-14T04:57:52.951Z,23.20
2018-05-14T04:58:57.828Z,23.20
2018-05-14T05:00:02.682Z,23.20
2018-05-14T05:01:07.378Z,23.20
2018-05-14T05:02:12.169Z,23.20
2018-05-14T05:03:16.996Z,23.20
2018-05-14T05:04:21.757Z,23.20
2018-05-14T05:05:26.833Z,23.20
2018-05-14T05:06:31.875Z,23.20
2018-05-14T05:07:36.609Z,23.20
2018-05-14T05:08:41.526Z,23.20
2018-05-14T05:09:46.483Z,23.20
2018-05-14T05:10:51.385Z,23.20
2018-05-14T05:11:56.208Z,23.20
2018-05-14T05:13:01.117Z,23.20
2018-05-14T05:14:06.091Z,23.20
2018-05-14T05:15:11.217Z,23.20
2018-05-14T05:16:16.430Z,23.20
2018-05-14T05:17:21.448Z,23.20
2018-05-14T05:18:26.149Z,23.20
2018-05-14T05:19:30.909Z,23.20
2018-05-14T05:20:35.671Z,23.20
2018-05-14T05:21:40.557Z,23.20
2018-05-14T05:22:45.418Z,23.20
2018-05-14T05:23:50.384Z,23.30
2018-05-14T05:24:55.123Z,23.30
2018-05-14T05:26:00.165Z,23.20
2018-05-14T05:27:05.016Z,23.30
2018-05-14T05:28:10.025Z,23.30
2018-05-14T05:29:14.899Z,23.30
2018-05-14T05:30:19.696Z,23.30
2018-05-14T05:31:24.571Z,23.30
2018-05-14T05:32:29.603Z,23.30
2018-05-14T05:33:34.674Z,23.30
2018-05-14T05:34:39.632Z,23.30
2018-05-14T05:35:44.533Z,23.30
2018-05-14T05:36:49.593Z,23.30
2018-05-14T05:37:54.696Z,23.30
2018-05-14T05:38:59.352Z,23.30
2018-05-14T05:40:04.452Z,23.30
2018-05-14T05:41:09.286Z,23.30
2018-05-14T05:42:14.527Z,23.30
2018-05-14T05:43:19.411Z,23.30
2018-05-14T05:44:25.997Z,23.30
2018-05-14T05:45:30.979Z,23.30
2018-05-14T05:46:35.870Z,23.30
2018-05-14T05:47:41.273Z,23.30
2018-05-14T05:48:45.919Z,23.30
2018-05-14T05:49:51.062Z,23.30
2018-05-14T05:50:57.562Z,23.30
2018-05-14T05:52:03.049Z,23.30
2018-05-14T05:53:07.710Z,23.30
2018-05-14T05:54:12.800Z,23.30
2018-05-14T05:55:17.789Z,23.30
2018-05-14T05:56:22.556Z,23.30
2018-05-14T05:57:27.682Z,23.30
2018-05-14T05:58:32.577Z,23.30
2018-05-14T05:59:37.621Z,23.30
2018-05-14T06:00:42.781Z,23.30
2018-05-14T06:01:47.488Z,23.30
2018-05-14T06:02:52.435Z,23.30
2018-05-14T06:03:57.519Z,23.30
2018-05-14T06:05:02.488Z,23.30
2018-05-14T06:06:07.442Z,23.30
2018-05-14T06:07:12.357Z,23.30
2018-05-14T06:08:17.499Z,23.30
2018-05-14T06:09:22.433Z,23.30
2018-05-14T06:10:27.211Z,23.30
2018-05-14T06:11:32.051Z,23.30
2018-05-14T06:12:36.959Z,23.40
2018-05-14T06:13:42.017Z,23.30
2018-05-14T06:14:47.073Z,23.40
2018-05-14T06:15:52.176Z,23.40
2018-05-14T06:16:57.020Z,23.40
2018-05-14T06:18:01.744Z,23.40
2018-05-14T06:19:06.432Z,23.40
2018-05-14T06:20:11.219Z,23.40
2018-05-14T06:21:16.194Z,23.40
2018-05-14T06:22:21.315Z,23.40
2018-05-14T06:23:26.389Z,23.40
2018-05-14T06:24:31.110Z,23.40
2018-05-14T06:25:36.188Z,23.40
2018-05-14T06:26:41.180Z,23.30
2018-05-14T06:27:46.301Z,23.30
2018-05-14T06:28:51.256Z,23.30
2018-05-14T06:29:56.234Z,23.30
2018-05-14T06:31:01.293Z,23.30
2018-05-14T06:32:06.113Z,23.30
2018-05-14T06:33:11.064Z,23.30
2018-05-14T06:34:16.011Z,23.30
2018-05-14T06:35:20.978Z,23.30
2018-05-14T06:36:25.726Z,23.30
2018-05-14T06:37:30.712Z,23.30
2018-05-14T06:38:35.720Z,23.30
2018-05-14T06:39:40.594Z,23.30
2018-05-14T06:40:45.446Z,23.30
2018-05-14T06:41:50.339Z,23.30
2018-05-14T06:42:55.185Z,23.30
2018-05-14T06:44:00.174Z,23.30
2018-05-14T06:45:05.033Z,23.30
2018-05-14T06:46:09.864Z,23.30
2018-05-14T06:47:14.716Z,23.30
2018-05-14T06:48:19.655Z,23.30
2018-05-14T06:49:24.489Z,23.30
2018-05-14T06:50:29.302Z,23.30
2018-05-14T06:51:34.269Z,23.30
2018-05-14T06:52:39.136Z,23.30
2018-05-14T06:53:43.797Z,23.30
2018-05-14T06:54:48.674Z,23.30
2018-05-14T06:55:53.610Z,23.30
2018-05-14T06:56:58.269Z,23.40
2018-05-14T06:58:03.136Z,23.30
2018-05-14T06:59:07.996Z,23.40
2018-05-14T07:00:12.832Z,23.40
2018-05-14T07:01:17.655Z,23.40
2018-05-14T07:02:22.501Z,23.40
2018-05-14T07:03:27.263Z,23.40
2018-05-14T07:04:32.042Z,23.40
2018-05-14T07:05:36.888Z,23.40
2018-05-14T07:06:41.711Z,23.40
2018-05-14T07:07:46.529Z,23.40
2018-05-14T07:08:51.425Z,23.40
2018-05-14T07:09:56.470Z,23.50
2018-05-14T07:11:01.598Z,23.50
2018-05-14T07:12:06.550Z,23.50
2018-05-14T07:13:11.486Z,23.50
2018-05-14T07:14:16.700Z,23.50
2018-05-14T07:15:21.614Z,23.50
2018-05-14T07:16:26.548Z,23.50
2018-05-14T07:17:31.480Z,23.50
2018-05-14T07:18:36.249Z,23.50
2018-05-14T07:19:41.071Z,23.50
2018-05-14T07:20:45.943Z,23.40
2018-05-14T07:21:50.855Z,23.50
2018-05-14T07:22:55.757Z,23.50
2018-05-14T07:24:00.692Z,23.40
2018-05-14T07:25:05.443Z,23.40
2018-05-14T07:26:10.532Z,23.40
2018-05-14T07:27:15.626Z,23.40
2018-05-14T07:28:20.482Z,23.40
2018-05-14T07:29:25.427Z,23.40
2018-05-14T07:30:30.472Z,23.40
2018-05-14T07:31:35.201Z,23.40
2018-05-14T07:32:40.019Z,23.40
2018-05-14T07:33:44.731Z,23.40
2018-05-14T07:34:49.828Z,23.40
2018-05-14T07:35:55.021Z,23.40
2018-05-14T07:37:00.116Z,23.40
2018-05-14T07:38:04.770Z,23.40
2018-05-14T07:39:09.596Z,23.50
2018-05-14T07:40:14.417Z,23.50
2018-05-14T07:41:19.281Z,23.50
2018-05-14T07:42:24.297Z,23.50
2018-05-14T07:43:29.211Z,23.50
2018-05-14T07:44:34.143Z,23.50
2018-05-14T07:45:39.212Z,23.50
2018-05-14T07:46:44.072Z,23.50
2018-05-14T07:47:48.848Z,23.50
2018-05-14T07:48:53.888Z,23.50
2018-05-14T07:49:58.785Z,23.50
2018-05-14T07:51:03.645Z,23.50
2018-05-14T07:52:08.469Z,23.50
2018-05-14T07:53:13.156Z,23.50
2018-05-14T07:54:18.931Z,23.50
2018-05-14T07:55:23.799Z,23.50
2018-05-14T07:56:28.667Z,23.50
2018-05-14T07:57:33.558Z,23.50
2018-05-14T07:58:38.467Z,23.50
2018-05-14T07:59:43.417Z,23.50
2018-05-14T08:00:48.193Z,23.50
2018-05-14T08:01:53.235Z,23.50
2018-05-14T08:02:58.122Z,23.50
2018-05-14T08:04:03.099Z,23.50
2018-05-14T08:05:07.789Z,23.50
2018-05-14T08:06:12.644Z,23.50
2018-05-14T08:07:17.411Z,23.50
2018-05-14T08:08:22.432Z,23.60
2018-05-14T08:09:27.343Z,23.50
2018-05-14T08:10:32.172Z,23.50
2018-05-14T08:11:37.073Z,23.50
2018-05-14T08:12:42.092Z,23.60
2018-05-14T08:13:47.075Z,23.60
2018-05-14T08:14:52.089Z,23.60
2018-05-14T08:15:56.782Z,23.60
2018-05-14T08:17:01.621Z,23.60
2018-05-14T08:18:06.505Z,23.60
2018-05-14T08:19:11.391Z,23.60
2018-05-14T08:20:16.296Z,23.60
2018-05-14T08:21:21.197Z,23.60
2018-05-14T08:22:26.197Z,23.60
2018-05-14T08:23:31.244Z,23.60
2018-05-14T08:24:35.995Z,23.60
2018-05-14T08:25:41.041Z,23.60
2018-05-14T08:26:45.962Z,23.60
2018-05-14T08:27:51.015Z,23.60
2018-05-14T08:28:55.810Z,23.60
2018-05-14T08:30:00.625Z,23.60
2018-05-14T08:31:05.771Z,23.60
2018-05-14T08:32:10.773Z,23.60
2018-05-14T08:33:15.839Z,23.60
2018-05-14T08:34:20.682Z,23.60
2018-05-14T08:35:25.650Z,23.60
2018-05-14T08:36:30.826Z,23.60
2018-05-14T08:37:35.460Z,23.60
2018-05-14T08:38:40.598Z,23.60
2018-05-14T08:39:45.426Z,23.60
2018-05-14T08:40:50.389Z,23.60
2018-05-14T08:41:55.179Z,23.60
2018-05-14T08:43:00.146Z,23.60
2018-05-14T08:44:05.024Z,23.60
2018-05-14T08:45:09.762Z,23.60
2018-05-14T08:46:14.475Z,23.60
2018-05-14T08:47:19.245Z,23.70
2018-05-14T08:48:24.091Z,23.60
2018-05-14T08:49:28.920Z,23.70
2018-05-14T08:50:33.738Z,23.60
2018-05-14T08:51:38.490Z,23.70
2018-05-14T08:52:43.284Z,23.70
2018-05-14T08:53:48.228Z,23.70
2018-05-14T08:54:53.281Z,23.70
2018-05-14T08:55:58.234Z,23.70
2018-05-14T08:57:03.213Z,23.70
2018-05-14T08:58:08.038Z,23.70
2018-05-14T08:59:12.782Z,23.70
2018-05-14T09:00:17.426Z,23.70
2018-05-14T09:01:22.054Z,23.70
2018-05-14T09:02:27.047Z,23.70
2018-05-14T09:03:31.927Z,23.70
2018-05-14T09:04:36.869Z,23.70
2018-05-14T09:05:41.955Z,23.70
2018-05-14T09:06:46.618Z,23.70
2018-05-14T09:07:51.312Z,23.70
2018-05-14T09:08:56.144Z,23.70
2018-05-14T09:10:00.997Z,23.70
2018-05-14T09:11:05.913Z,23.70
2018-05-14T09:12:10.989Z,23.70
2018-05-14T09:13:15.728Z,23.70
2018-05-14T09:14:20.450Z,23.70
2018-05-14T09:15:25.136Z,23.70
2018-05-14T09:16:29.875Z,23.70
2018-05-14T09:17:34.758Z,23.70
2018-05-14T09:18:39.723Z,23.70
2018-05-14T09:19:44.990Z,23.70
2018-05-14T09:20:49.825Z,23.70
2018-05-14T09:21:54.730Z,23.70
2018-05-14T09:22:59.645Z,23.70
2018-05-14T09:24:04.446Z,23.80
2018-05-14T09:25:09.335Z,23.80
2018-05-14T09:26:14.069Z,23.80
2018-05-14T09:27:19.152Z,23.80
2018-05-14T09:28:23.985Z,23.70
2018-05-14T09:29:29.003Z,23.80
2018-05-14T09:30:33.844Z,23.80
2018-05-14T09:31:38.507Z,23.80
2018-05-14T09:32:43.623Z,23.80
2018-05-14T09:33:48.244Z,23.80
2018-05-14T09:34:53.064Z,23.80
2018-05-14T09:35:57.973Z,23.80
2018-05-14T09:37:03.004Z,23.80
2018-05-14T09:38:07.835Z,23.80
2018-05-14T09:39:12.684Z,23.80
2018-05-14T09:40:17.323Z,23.80
2018-05-14T09:41:21.980Z,23.80
2018-05-14T09:42:27.025Z,23.80
2018-05-14T09:43:31.757Z,23.80
2018-05-14T09:44:36.579Z,23.80
2018-05-14T09:45:41.618Z,23.80
2018-05-14T09:46:46.640Z,23.80
2018-05-14T09:47:51.480Z,23.80
2018-05-14T09:48:56.483Z,23.80
2018-05-14T09:50:01.437Z,23.80
2018-05-14T09:51:06.226Z,23.80
2018-05-14T09:52:11.007Z,23.80
2018-05-14T09:53:15.848Z,23.80
2018-05-14T09:54:20.801Z,23.80
2018-05-14T09:55:25.600Z,23.80
2018-05-14T09:56:30.571Z,23.80
2018-05-14T09:57:35.445Z,23.80
2018-05-14T09:58:40.433Z,23.80
2018-05-14T09:59:45.436Z,23.80
2018-05-14T10:00:50.346Z,23.80
2018-05-14T10:01:55.263Z,23.80
2018-05-14T10:03:00.297Z,23.80
2018-05-14T10:04:05.422Z,23.80
2018-05-14T10:05:10.091Z,23.80
2018-05-14T10:06:14.931Z,23.80
2018-05-14T10:07:19.821Z,23.80
2018-05-14T10:08:24.670Z,23.80
2018-05-14T10:09:29.340Z,23.80
2018-05-14T10:10:34.457Z,23.80
2018-05-14T10:11:39.487Z,23.80
2018-05-14T10:12:44.282Z,23.80
2018-05-14T10:13:49.264Z,23.80
2018-05-14T10:14:54.230Z,23.80
2018-05-14T10:15:59.286Z,23.80
2018-05-14T10:17:04.101Z,23.80
2018-05-14T10:18:09.028Z,23.80
2018-05-14T10:19:14.095Z,23.80
2018-05-14T10:20:18.892Z,23.80
2018-05-14T10:21:23.762Z,23.80
2018-05-14T10:22:28.758Z,23.80
2018-05-14T10:23:33.715Z,23.80
2018-05-14T10:24:38.726Z,23.90
2018-05-14T10:25:43.643Z,23.90
2018-05-14T10:26:48.464Z,23.90
2018-05-14T10:27:53.224Z,23.90
2018-05-14T10:28:58.247Z,23.90
2018-05-14T10:30:03.259Z,23.90
2018-05-14T10:31:08.819Z,23.90
2018-05-14T10:32:13.705Z,23.90
2018-05-14T10:33:18.494Z,23.90
2018-05-14T10:34:23.145Z,23.90
2018-05-14T10:35:28.141Z,23.90
2018-05-14T10:36:33.528Z,23.90
2018-05-14T10:37:38.457Z,23.90
2018-05-14T10:38:43.359Z,23.90
2018-05-14T10:39:48.354Z,23.90
2018-05-14T10:40:53.172Z,23.90
2018-05-14T10:41:58.133Z,23.90
2018-05-14T10:43:03.012Z,23.90
2018-05-14T10:44:08.086Z,23.90
2018-05-14T10:45:12.819Z,23.90
2018-05-14T10:46:17.736Z,23.90
2018-05-14T10:47:22.752Z,23.90
2018-05-14T10:48:27.995Z,23.90
2018-05-14T10:49:32.784Z,23.90
2018-05-14T10:50:40.807Z,24.00
2018-05-14T10:51:45.909Z,24.00
2018-05-14T10:52:50.916Z,24.00
2018-05-14T10:53:55.999Z,24.00
2018-05-14T10:55:00.843Z,24.00
2018-05-14T10:56:05.838Z,24.00
2018-05-14T10:57:10.760Z,24.00
2018-05-14T10:58:15.664Z,24.00
2018-05-14T10:59:20.542Z,24.00
2018-05-14T11:00:25.408Z,24.00
2018-05-14T11:01:30.283Z,24.00
2018-05-14T11:02:35.050Z,24.00
2018-05-14T11:03:39.937Z,24.00
2018-05-14T11:04:44.689Z,24.00
2018-05-14T11:05:49.493Z,24.00
2018-05-14T11:06:54.334Z,24.00
2018-05-14T11:07:58.959Z,24.00
2018-05-14T11:09:04.018Z,24.00
2018-05-14T11:10:08.928Z,24.00
2018-05-14T11:11:14.050Z,24.00
2018-05-14T11:12:18.996Z,24.00
2018-05-14T11:13:23.978Z,24.00
2018-05-14T11:14:28.934Z,24.00
2018-05-14T11:15:34.029Z,24.00
2018-05-14T11:16:38.990Z,24.00
2018-05-14T11:17:43.953Z,24.00
2018-05-14T11:18:49.136Z,24.00
2018-05-14T11:19:53.937Z,24.00
2018-05-14T11:20:58.608Z,24.00
2018-05-14T11:22:03.625Z,24.10
2018-05-14T11:23:08.541Z,24.10
2018-05-14T11:24:13.526Z,24.10
2018-05-14T11:25:18.630Z,24.10
2018-05-14T11:26:23.470Z,24.10
2018-05-14T11:27:28.338Z,24.10
2018-05-14T11:28:33.440Z,24.10
2018-05-14T11:29:40.079Z,24.10
2018-05-14T11:30:44.994Z,24.10
2018-05-14T11:31:49.638Z,24.20
2018-05-14T11:32:54.271Z,24.10
2018-05-14T11:33:58.932Z,24.20
2018-05-14T11:35:03.752Z,24.10
2018-05-14T11:36:08.533Z,24.20
2018-05-14T11:37:13.443Z,24.20
2018-05-14T11:38:18.420Z,24.20
2018-05-14T11:39:23.472Z,24.20
2018-05-14T11:40:28.569Z,24.20
2018-05-14T11:41:33.753Z,24.20
2018-05-14T11:42:38.642Z,24.20
2018-05-14T11:43:43.519Z,24.20
2018-05-14T11:44:48.467Z,24.20
2018-05-14T11:45:53.316Z,24.20
2018-05-14T11:46:58.262Z,24.30
2018-05-14T11:48:03.252Z,24.30
2018-05-14T11:49:07.968Z,24.30
2018-05-14T11:50:13.090Z,24.30
2018-05-14T11:51:17.838Z,24.30
2018-05-14T11:52:22.923Z,24.20
2018-05-14T11:53:28.036Z,24.30
2018-05-14T11:54:32.765Z,24.30
2018-05-14T11:55:37.640Z,24.30
2018-05-14T11:56:42.494Z,24.30
2018-05-14T11:57:47.326Z,24.30
2018-05-14T11:58:52.356Z,24.30
2018-05-14T11:59:57.069Z,24.30
2018-05-14T12:01:01.979Z,24.30
2018-05-14T12:02:06.827Z,24.30
2018-05-14T12:03:11.945Z,24.30
2018-05-14T12:04:16.677Z,24.30
2018-05-14T12:05:21.693Z,24.30
2018-05-14T12:06:26.603Z,24.30
2018-05-14T12:07:31.434Z,24.30
2018-05-14T12:08:36.255Z,24.30
2018-05-14T12:09:41.249Z,24.30
2018-05-14T12:10:46.364Z,24.30
2018-05-14T12:11:50.990Z,24.30
2018-05-14T12:12:56.120Z,24.30
2018-05-14T12:14:01.056Z,24.30
2018-05-14T12:15:06.095Z,24.30
2018-05-14T12:16:10.901Z,24.30
2018-05-14T12:17:15.697Z,24.30
2018-05-14T12:18:20.774Z,24.30
2018-05-14T12:19:25.583Z,24.30
2018-05-14T12:20:30.673Z,24.30
2018-05-14T12:21:35.801Z,24.40
2018-05-14T12:22:40.551Z,24.40
2018-05-14T12:23:45.506Z,24.40
2018-05-14T12:24:50.521Z,24.40
2018-05-14T12:25:55.303Z,24.40
2018-05-14T12:27:00.197Z,24.40
2018-05-14T12:28:05.616Z,24.40
2018-05-14T12:29:10.697Z,24.30
2018-05-14T12:30:15.534Z,24.30
2018-05-14T12:31:20.674Z,24.40
2018-05-14T12:32:25.775Z,24.40
2018-05-14T12:33:30.482Z,24.30
2018-05-14T12:34:35.755Z,24.40
2018-05-14T12:35:40.628Z,24.40
2018-05-14T12:36:45.432Z,24.40
2018-05-14T12:37:50.329Z,24.40
2018-05-14T12:38:55.218Z,24.40
2018-05-14T12:40:00.051Z,24.40
2018-05-14T12:41:05.038Z,24.40
2018-05-14T12:42:10.000Z,24.40
2018-05-14T12:43:14.818Z,24.40
2018-05-14T12:44:19.799Z,24.40
2018-05-14T12:45:24.813Z,24.40
2018-05-14T12:46:29.588Z,24.40
2018-05-14T12:47:34.609Z,24.40
2018-05-14T12:48:39.402Z,24.30
2018-05-14T12:49:44.307Z,24.30
2018-05-14T12:50:49.056Z,24.30
2018-05-14T12:51:54.245Z,24.30
2018-05-14T12:52:59.006Z,24.30
2018-05-14T12:54:03.737Z,24.30
2018-05-14T12:55:08.669Z,24.30
2018-05-14T12:56:13.666Z,24.30
2018-05-14T12:57:18.602Z,24.30
2018-05-14T12:58:23.574Z,24.30
2018-05-14T12:59:28.586Z,24.30
2018-05-14T13:00:33.400Z,24.30
2018-05-14T13:01:38.112Z,24.30
2018-05-14T13:02:44.267Z,24.30
2018-05-14T13:03:49.148Z,24.30
2018-05-14T13:04:53.808Z,24.30
2018-05-14T13:05:58.823Z,24.30
2018-05-14T13:07:03.892Z,24.30
2018-05-14T13:08:08.775Z,24.30
2018-05-14T13:09:13.842Z,24.30
2018-05-14T13:10:18.575Z,24.30
2018-05-14T13:11:23.619Z,24.30
2018-05-14T13:12:28.497Z,24.30
2018-05-14T13:13:33.211Z,24.30
2018-05-14T13:14:37.909Z,24.30
2018-05-14T13:15:42.917Z,24.30
2018-05-14T13:16:47.655Z,24.30
2018-05-14T13:17:52.644Z,24.30
2018-05-14T13:18:57.624Z,24.30
2018-05-14T13:20:02.587Z,24.30
2018-05-14T13:21:07.422Z,24.30
2018-05-14T13:22:12.296Z,24.30
2018-05-14T13:23:17.076Z,24.30
2018-05-14T13:24:22.084Z,24.30
2018-05-14T13:25:26.977Z,24.30
2018-05-14T13:26:31.813Z,24.30
2018-05-14T13:27:36.614Z,24.30
2018-05-14T13:28:41.612Z,24.30
2018-05-14T13:29:46.457Z,24.30
2018-05-14T13:30:51.298Z,24.30
2018-05-14T13:31:56.407Z,24.30
2018-05-14T13:33:01.238Z,24.30
2018-05-14T13:34:06.109Z,24.30
2018-05-14T13:35:11.190Z,24.30
2018-05-14T13:36:16.068Z,24.30
2018-05-14T13:37:20.740Z,24.30
2018-05-14T13:38:25.432Z,24.30
2018-05-14T13:39:30.256Z,24.30
2018-05-14T13:40:35.117Z,24.30
2018-05-14T13:41:39.769Z,24.30
2018-05-14T13:42:44.388Z,24.30
2018-05-14T13:43:49.341Z,24.30
2018-05-14T13:44:54.170Z,24.30
2018-05-14T13:45:58.980Z,24.30
2018-05-14T13:47:03.649Z,24.30
2018-05-14T13:48:08.526Z,24.30
2018-05-14T13:49:13.407Z,24.30
2018-05-14T13:50:18.547Z,24.30
2018-05-14T13:51:23.409Z,24.30
2018-05-14T13:52:28.349Z,24.30
2018-05-14T13:53:33.270Z,24.30
2018-05-14T13:54:38.087Z,24.30
2018-05-14T13:55:42.840Z,24.30
2018-05-14T13:56:47.808Z,24.30
2018-05-14T13:57:52.568Z,24.30